createdAt,value
2019-05-05T00:00:30.679Z,63.87
2019-05-05T00:03:14.659Z,64.35
2019-05-05T00:05:46.215Z,64.92
2019-05-05T00:08:18.084Z,65.74
2019-05-05T00:11:09.380Z,65.89
2019-05-05T00:13:50.252Z,65.56
2019-05-05T00:16:47.226Z,66.11
2019-05-05T00:19:29.842Z,66.48
2019-05-05T00:21:52.736Z,66.56
2019-05-05T00:24:25.606Z,66.28
2019-05-05T00:26:57.760Z,66.16
2019-05-05T00:29:29.645Z,66.09
2019-05-05T00:32:01.521Z,65.63
2019-05-05T00:34:35.007Z,65.44
2019-05-05T00:37:07.254Z,65.60
2019-05-05T00:39:39.047Z,66.10
2019-05-05T00:42:11.286Z,66.70
2019-05-05T00:44:44.691Z,66.38
2019-05-05T00:47:50.916Z,66.00
2019-05-05T00:50:25.253Z,66.40
2019-05-05T00:52:57.642Z,66.71
2019-05-05T00:55:29.426Z,66.75
2019-05-05T00:58:01.453Z,66.69
2019-05-05T01:00:52.118Z,66.57
2019-05-05T01:03:26.802Z,66.33
2019-05-05T01:06:07.830Z,66.54
2019-05-05T01:08:39.924Z,66.18
2019-05-05T01:11:14.334Z,66.37
2019-05-05T01:13:45.846Z,66.76
2019-05-05T01:16:17.676Z,66.91
2019-05-05T01:18:49.409Z,66.31
2019-05-05T01:21:21.199Z,66.36
2019-05-05T01:23:54.863Z,66.57
2019-05-05T01:26:26.718Z,66.74
2019-05-05T01:28:58.551Z,66.73
2019-05-05T01:31:30.424Z,66.80
2019-05-05T01:34:24.530Z,66.72
2019-05-05T01:37:04.774Z,66.73
2019-05-05T01:39:54.257Z,67.08
2019-05-05T01:42:26.303Z,67.04
2019-05-05T01:44:58.093Z,66.87
2019-05-05T01:47:29.870Z,67.02
2019-05-05T01:50:15.191Z,66.91
2019-05-05T01:52:35.388Z,67.17
2019-05-05T01:55:07.492Z,67.39
2019-05-05T01:57:40.048Z,67.55
2019-05-05T02:00:12.223Z,67.79
2019-05-05T02:02:45.000Z,68.92
2019-05-05T02:05:18.207Z,68.92
2019-05-05T02:07:49.953Z,68.71
2019-05-05T02:10:22.737Z,68.99
2019-05-05T02:12:55.201Z,69.57
2019-05-05T02:15:28.834Z,69.44
2019-05-05T02:18:00.610Z,69.37
2019-05-05T02:21:05.936Z,69.35
2019-05-05T02:23:38.767Z,69.16
2019-05-05T02:26:11.096Z,69.21
2019-05-05T02:28:59.077Z,69.73
2019-05-05T02:31:41.343Z,69.76
2019-05-05T02:34:16.293Z,69.44
2019-05-05T02:36:46.805Z,69.18
2019-05-05T02:39:18.534Z,68.82
2019-05-05T02:41:51.138Z,68.39
2019-05-05T02:44:25.521Z,68.37
2019-05-05T02:47:08.699Z,68.41
2019-05-05T02:49:45.362Z,68.32
2019-05-05T02:52:19.642Z,68.37
2019-05-05T02:54:53.626Z,67.92
2019-05-05T02:57:27.422Z,67.74
2019-05-05T03:00:05.122Z,67.54
2019-05-05T03:02:38.800Z,67.59
2019-05-05T03:05:14.282Z,67.65
2019-05-05T03:07:46.506Z,67.40
2019-05-05T03:10:18.450Z,67.20
2019-05-05T03:12:51.266Z,67.33
2019-05-05T03:15:46.940Z,67.04
2019-05-05T03:18:19.454Z,67.01
2019-05-05T03:21:03.946Z,66.92
2019-05-05T03:23:25.948Z,66.39
2019-05-05T03:25:57.911Z,66.51
2019-05-05T03:28:40.936Z,67.09
2019-05-05T03:31:16.071Z,66.90
2019-05-05T03:33:48.241Z,66.61
2019-05-05T03:36:21.179Z,66.72
2019-05-05T03:38:55.233Z,66.50
2019-05-05T03:41:36.075Z,66.61
2019-05-05T03:44:29.805Z,66.81
2019-05-05T03:47:03.559Z,66.63
2019-05-05T03:49:36.173Z,66.54
2019-05-05T03:52:08.300Z,66.26
2019-05-05T03:54:40.833Z,66.65
2019-05-05T03:57:14.095Z,66.84
2019-05-05T03:59:47.941Z,66.22
2019-05-05T04:02:28.636Z,66.24
2019-05-05T04:05:07.964Z,66.40
2019-05-05T04:07:40.994Z,66.57
2019-05-05T04:10:14.121Z,66.45
2019-05-05T04:12:47.526Z,66.17
2019-05-05T04:15:19.573Z,66.24
2019-05-05T04:18:00.223Z,66.24
2019-05-05T04:20:38.037Z,65.74
2019-05-05T04:23:10.088Z,66.32
2019-05-05T04:25:43.871Z,66.04
2019-05-05T04:28:15.358Z,66.04
2019-05-05T04:30:47.315Z,65.83
2019-05-05T04:33:19.098Z,65.56
2019-05-05T04:35:51.140Z,65.56
2019-05-05T04:38:24.319Z,65.46
2019-05-05T04:40:56.720Z,65.44
2019-05-05T04:43:28.528Z,65.75
2019-05-05T04:46:00.345Z,65.50
2019-05-05T04:48:46.944Z,66.09
2019-05-05T04:51:24.494Z,65.85
2019-05-05T04:54:14.235Z,65.71
2019-05-05T04:56:46.588Z,65.99
2019-05-05T04:59:18.356Z,65.79
2019-05-05T05:01:54.477Z,65.79
2019-05-05T05:04:38.628Z,65.90
2019-05-05T05:07:10.468Z,65.36
2019-05-05T05:09:43.462Z,65.82
2019-05-05T05:12:15.567Z,65.30
2019-05-05T05:14:47.400Z,65.71
2019-05-05T05:17:26.174Z,65.17
2019-05-05T05:19:57.965Z,65.15
2019-05-05T05:22:29.982Z,65.67
2019-05-05T05:25:04.313Z,65.90
2019-05-05T05:27:35.748Z,65.23
2019-05-05T05:30:07.957Z,65.26
2019-05-05T05:32:40.090Z,65.73
2019-05-05T05:35:13.930Z,65.70
2019-05-05T05:37:46.674Z,65.39
2019-05-05T05:40:24.322Z,65.31
2019-05-05T05:42:57.977Z,65.70
2019-05-05T05:45:43.691Z,65.71
2019-05-05T05:48:28.729Z,65.06
2019-05-05T05:51:04.174Z,65.51
2019-05-05T05:53:36.408Z,65.12
2019-05-05T05:56:08.272Z,65.20
2019-05-05T05:58:40.141Z,64.91
2019-05-05T06:01:11.862Z,64.23
2019-05-05T06:03:44.338Z,64.50
2019-05-05T06:06:16.365Z,64.72
2019-05-05T06:08:48.219Z,64.68
2019-05-05T06:11:20.420Z,64.34
2019-05-05T06:13:54.385Z,63.89
2019-05-05T06:16:26.231Z,63.40
2019-05-05T06:18:58.092Z,63.38
2019-05-05T06:21:29.844Z,62.88
2019-05-05T06:24:01.645Z,62.76
2019-05-05T06:26:34.567Z,62.29
2019-05-05T06:29:07.753Z,61.88
2019-05-05T06:31:39.615Z,61.98
2019-05-05T06:34:13.848Z,61.90
2019-05-05T06:36:45.177Z,61.29
2019-05-05T06:39:17.140Z,60.70
2019-05-05T06:41:58.659Z,60.51
2019-05-05T06:44:44.209Z,60.45
2019-05-05T06:47:19.299Z,59.00
2019-05-05T06:49:51.160Z,59.40
2019-05-05T06:52:24.722Z,59.36
2019-05-05T06:54:56.476Z,58.84
2019-05-05T06:57:28.254Z,58.52
2019-05-05T07:00:00.180Z,57.82
2019-05-05T07:02:34.170Z,57.50
2019-05-05T07:05:05.981Z,57.41
2019-05-05T07:07:37.754Z,56.98
2019-05-05T07:10:09.816Z,56.30
2019-05-05T07:12:43.823Z,55.65
2019-05-05T07:15:15.345Z,54.99
2019-05-05T07:17:47.199Z,55.10
2019-05-05T07:20:19.012Z,54.60
2019-05-05T07:23:01.491Z,54.39
2019-05-05T07:25:24.725Z,54.01
2019-05-05T07:27:56.652Z,53.78
2019-05-05T07:30:29.705Z,53.03
2019-05-05T07:33:01.542Z,52.47
2019-05-05T07:35:56.130Z,52.88
2019-05-05T07:38:15.767Z,52.83
2019-05-05T07:40:47.878Z,52.14
2019-05-05T07:43:19.656Z,51.93
2019-05-05T07:45:53.874Z,52.13
2019-05-05T07:48:25.032Z,51.62
2019-05-05T07:51:01.494Z,51.04
2019-05-05T07:53:33.541Z,50.60
2019-05-05T07:56:07.622Z,50.22
2019-05-05T07:58:39.114Z,49.78
2019-05-05T08:01:11.067Z,49.97
2019-05-05T08:03:44.630Z,49.66
2019-05-05T08:06:16.390Z,49.80
2019-05-05T08:08:48.186Z,49.75
2019-05-05T08:11:20.454Z,50.03
2019-05-05T08:13:52.200Z,50.13
2019-05-05T08:16:40.449Z,49.98
2019-05-05T08:19:30.079Z,49.60
2019-05-05T08:22:03.682Z,49.53
2019-05-05T08:25:06.942Z,49.17
2019-05-05T08:27:57.040Z,46.73
2019-05-05T08:30:41.406Z,47.76
2019-05-05T08:33:14.077Z,47.26
2019-05-05T08:35:46.158Z,46.48
2019-05-05T08:38:18.291Z,46.02
2019-05-05T08:40:50.259Z,45.67
2019-05-05T08:43:24.144Z,44.92
2019-05-05T08:45:55.883Z,44.14
2019-05-05T08:48:27.708Z,44.03
2019-05-05T08:50:59.508Z,43.05
2019-05-05T08:53:42.496Z,42.84
2019-05-05T08:56:05.244Z,42.11
2019-05-05T08:58:37.580Z,42.70
2019-05-05T09:01:09.364Z,42.55
2019-05-05T09:03:41.515Z,42.48
2019-05-05T09:06:13.837Z,42.61
2019-05-05T09:08:46.039Z,42.69
2019-05-05T09:11:17.821Z,43.40
2019-05-05T09:13:50.492Z,43.24
2019-05-05T09:16:24.115Z,43.00
2019-05-05T09:19:09.672Z,42.59
2019-05-05T09:21:41.697Z,42.14
2019-05-05T09:24:41.771Z,42.03
2019-05-05T09:27:47.499Z,42.38
2019-05-05T09:30:25.939Z,42.59
2019-05-05T09:32:57.871Z,43.04
2019-05-05T09:35:29.766Z,43.00
2019-05-05T09:38:03.982Z,42.54
2019-05-05T09:40:43.798Z,42.29
2019-05-05T09:43:15.227Z,42.04
2019-05-05T09:45:47.452Z,41.01
2019-05-05T09:48:19.327Z,41.22
2019-05-05T09:50:51.230Z,41.80
2019-05-05T09:53:23.764Z,41.85
2019-05-05T09:55:56.825Z,42.41
2019-05-05T09:58:28.660Z,42.49
2019-05-05T10:01:00.769Z,41.98
2019-05-05T10:03:34.058Z,41.34
2019-05-05T10:06:06.131Z,42.65
2019-05-05T10:08:38.008Z,42.69
2019-05-05T10:11:10.063Z,41.67
2019-05-05T10:13:44.135Z,40.82
2019-05-05T10:16:16.254Z,40.07
2019-05-05T10:18:48.365Z,39.38
2019-05-05T10:21:20.599Z,39.19
2019-05-05T10:23:54.151Z,38.89
2019-05-05T10:26:26.462Z,37.47
2019-05-05T10:29:01.131Z,36.81
2019-05-05T10:31:32.225Z,38.25
2019-05-05T10:34:06.000Z,38.39
2019-05-05T10:36:39.136Z,37.67
2019-05-05T10:39:17.311Z,37.67
2019-05-05T10:41:49.255Z,37.47
2019-05-05T10:44:21.024Z,39.04
2019-05-05T10:46:53.953Z,38.60
2019-05-05T10:49:25.981Z,39.23
2019-05-05T10:51:58.086Z,39.67
2019-05-05T10:54:43.203Z,39.92
2019-05-05T10:57:04.013Z,40.37
2019-05-05T10:59:36.154Z,39.96
2019-05-05T11:02:08.800Z,39.32
2019-05-05T11:04:40.667Z,39.05
2019-05-05T11:07:14.534Z,39.34
2019-05-05T11:09:46.353Z,38.86
2019-05-05T11:12:18.825Z,38.36
2019-05-05T11:14:50.678Z,39.21
2019-05-05T11:17:24.836Z,38.77
2019-05-05T11:19:56.648Z,39.28
2019-05-05T11:22:28.687Z,39.59
2019-05-05T11:25:01.270Z,39.50
2019-05-05T11:27:34.524Z,39.99
2019-05-05T11:30:17.801Z,39.82
2019-05-05T11:33:07.946Z,39.16
2019-05-05T11:35:49.442Z,38.54
2019-05-05T11:38:21.744Z,38.11
2019-05-05T11:40:54.633Z,37.99
2019-05-05T11:43:27.028Z,38.21
2019-05-05T11:45:59.035Z,38.15
2019-05-05T11:48:31.224Z,37.81
2019-05-05T11:51:04.508Z,37.12
2019-05-05T11:53:38.031Z,37.26
2019-05-05T11:56:09.888Z,36.90
2019-05-05T11:58:44.041Z,36.75
2019-05-05T12:01:15.477Z,36.53
2019-05-05T12:03:48.157Z,35.87
2019-05-05T12:06:20.043Z,35.72
2019-05-05T12:08:52.417Z,35.77
2019-05-05T12:11:24.324Z,35.16
2019-05-05T12:13:56.621Z,34.87
2019-05-05T12:16:34.705Z,35.06
2019-05-05T12:19:13.558Z,34.13
2019-05-05T12:21:45.115Z,33.69
2019-05-05T12:24:24.808Z,31.89
2019-05-05T12:27:13.995Z,32.07
2019-05-05T12:29:50.600Z,30.22
2019-05-05T12:32:24.132Z,29.25
2019-05-05T12:34:56.608Z,28.34
2019-05-05T12:37:28.648Z,26.59
2019-05-05T12:40:00.679Z,26.67
2019-05-05T12:42:32.723Z,27.09
2019-05-05T12:45:08.034Z,27.27
2019-05-05T12:47:58.200Z,26.75
2019-05-05T12:50:30.410Z,26.79
2019-05-05T12:53:04.050Z,26.35
2019-05-05T12:55:41.494Z,24.22
2019-05-05T12:58:10.313Z,22.04
2019-05-05T13:00:44.972Z,20.03
2019-05-05T13:03:17.175Z,19.36
2019-05-05T13:05:49.377Z,19.53
2019-05-05T13:08:23.452Z,19.56
2019-05-05T13:10:55.792Z,20.18
2019-05-05T13:13:27.819Z,19.60
2019-05-05T13:16:00.023Z,18.20
2019-05-05T13:18:33.970Z,17.12
2019-05-05T13:21:15.697Z,16.30
2019-05-05T13:23:59.890Z,15.78
2019-05-05T13:26:41.385Z,14.75
2019-05-05T13:29:13.960Z,15.07
2019-05-05T13:31:46.461Z,16.05
2019-05-05T13:34:18.457Z,16.15
2019-05-05T13:36:50.452Z,16.92
2019-05-05T13:39:24.577Z,17.24
2019-05-05T13:41:56.434Z,17.15
2019-05-05T13:44:47.192Z,17.80
2019-05-05T13:47:19.399Z,17.36
2019-05-05T13:49:51.400Z,16.08
2019-05-05T13:52:24.507Z,16.58
2019-05-05T13:54:56.446Z,16.41
2019-05-05T13:57:28.482Z,16.45
2019-05-05T14:00:03.658Z,17.16
2019-05-05T14:02:37.067Z,18.83
2019-05-05T14:05:09.435Z,20.20
2019-05-05T14:07:43.676Z,19.52
2019-05-05T14:10:15.719Z,18.38
2019-05-05T14:12:47.617Z,18.15
2019-05-05T14:15:20.914Z,19.18
2019-05-05T14:17:54.374Z,20.29
2019-05-05T14:20:26.683Z,21.82
2019-05-05T14:22:58.836Z,22.78
2019-05-05T14:25:31.865Z,23.54
2019-05-05T14:28:03.999Z,24.41
2019-05-05T14:30:54.234Z,25.34
2019-05-05T14:33:34.112Z,25.67
2019-05-05T14:36:14.150Z,25.10
2019-05-05T14:38:53.788Z,24.27
2019-05-05T14:41:25.568Z,24.01
2019-05-05T14:43:57.604Z,23.96
2019-05-05T14:46:29.373Z,24.23
2019-05-05T14:49:01.232Z,23.75
2019-05-05T14:51:34.211Z,23.62
2019-05-05T14:54:06.898Z,23.12
2019-05-05T14:56:38.675Z,24.95
2019-05-05T14:59:10.637Z,26.14
2019-05-05T15:01:44.532Z,26.98
2019-05-05T15:04:17.960Z,26.35
2019-05-05T15:07:17.518Z,26.68
2019-05-05T15:10:08.353Z,26.78
2019-05-05T15:12:44.697Z,25.99
2019-05-05T15:15:17.607Z,25.24
2019-05-05T15:17:49.505Z,25.53
2019-05-05T15:20:21.723Z,25.93
2019-05-05T15:22:54.128Z,24.43
2019-05-05T15:25:26.971Z,22.45
2019-05-05T15:27:58.879Z,20.99
2019-05-05T15:30:31.106Z,19.47
2019-05-05T15:33:04.635Z,18.82
2019-05-05T15:35:36.888Z,17.72
2019-05-05T15:38:08.750Z,16.83
2019-05-05T15:40:40.905Z,15.27
2019-05-05T15:43:14.275Z,14.72
2019-05-05T15:45:47.510Z,14.40
2019-05-05T15:48:19.401Z,14.23
2019-05-05T15:50:51.349Z,14.74
2019-05-05T15:53:23.518Z,14.76
2019-05-05T15:55:56.092Z,14.96
2019-05-05T15:58:27.906Z,15.13
2019-05-05T16:00:59.870Z,15.09
2019-05-05T16:03:31.680Z,15.31
2019-05-05T16:06:03.920Z,15.06
2019-05-05T16:08:36.290Z,14.73
2019-05-05T16:11:08.548Z,14.67
2019-05-05T16:13:40.706Z,15.14
2019-05-05T16:16:28.666Z,16.12
2019-05-05T16:19:27.908Z,16.84
2019-05-05T16:22:03.763Z,18.00
2019-05-05T16:24:37.433Z,19.20
2019-05-05T16:27:19.488Z,20.27
2019-05-05T16:29:44.493Z,20.99
2019-05-05T16:32:21.649Z,21.25
2019-05-05T16:34:50.320Z,21.89
2019-05-05T16:37:23.596Z,22.28
2019-05-05T16:39:56.074Z,22.33
2019-05-05T16:42:28.347Z,21.50
2019-05-05T16:45:00.224Z,21.37
2019-05-05T16:47:33.638Z,21.12
2019-05-05T16:50:06.295Z,21.50
2019-05-05T16:52:43.486Z,21.79
2019-05-05T16:55:25.867Z,22.18
2019-05-05T16:57:57.941Z,23.06
2019-05-05T17:00:29.867Z,24.03
2019-05-05T17:03:04.073Z,24.76
2019-05-05T17:05:35.805Z,25.68
2019-05-05T17:08:08.074Z,26.70
2019-05-05T17:10:40.011Z,27.62
2019-05-05T17:13:21.448Z,28.47
2019-05-05T17:16:21.224Z,29.23
2019-05-05T17:19:19.907Z,29.65
2019-05-05T17:22:10.116Z,30.12
2019-05-05T17:24:44.026Z,30.65
2019-05-05T17:27:16.678Z,31.67
2019-05-05T17:29:48.612Z,31.70
2019-05-05T17:32:20.929Z,31.88
2019-05-05T17:34:54.111Z,32.14
2019-05-05T17:37:26.337Z,32.61
2019-05-05T17:40:07.162Z,33.11
2019-05-05T17:43:03.920Z,33.32
2019-05-05T17:45:55.088Z,33.43
2019-05-05T17:48:35.587Z,34.15
2019-05-05T17:51:26.691Z,34.32
2019-05-05T17:54:16.147Z,34.23
2019-05-05T17:56:48.531Z,34.06
2019-05-05T17:59:20.479Z,34.43
2019-05-05T18:01:54.020Z,35.01
2019-05-05T18:04:26.136Z,35.30
2019-05-05T18:07:20.959Z,35.73
2019-05-05T18:10:14.159Z,36.32
2019-05-05T18:12:58.282Z,36.34
2019-05-05T18:15:48.339Z,36.51
2019-05-05T18:18:20.677Z,36.76
2019-05-05T18:20:54.261Z,36.88
2019-05-05T18:23:26.354Z,37.46
2019-05-05T18:25:58.289Z,37.72
2019-05-05T18:28:30.506Z,37.79
2019-05-05T18:31:05.462Z,37.92
2019-05-05T18:33:36.991Z,38.13
2019-05-05T18:36:09.695Z,38.20
2019-05-05T18:38:44.476Z,38.46
2019-05-05T18:41:23.715Z,38.87
2019-05-05T18:44:15.126Z,39.02
2019-05-05T18:46:48.635Z,39.51
2019-05-05T18:49:23.239Z,39.50
2019-05-05T18:51:54.825Z,39.81
2019-05-05T18:54:26.958Z,39.98
2019-05-05T18:56:58.836Z,40.13
2019-05-05T18:59:31.288Z,40.70
2019-05-05T19:02:34.650Z,40.79
2019-05-05T19:05:25.403Z,41.35
2019-05-05T19:08:09.350Z,41.42
2019-05-05T19:10:43.285Z,41.86
2019-05-05T19:13:14.782Z,42.11
2019-05-05T19:15:46.974Z,42.88
2019-05-05T19:18:20.100Z,42.98
2019-05-05T19:20:57.518Z,43.30
2019-05-05T19:23:29.473Z,43.79
2019-05-05T19:26:03.809Z,43.97
2019-05-05T19:28:44.289Z,43.96
2019-05-05T19:31:14.070Z,43.98
2019-05-05T19:33:47.048Z,44.00
2019-05-05T19:36:19.367Z,44.13
2019-05-05T19:38:51.324Z,44.08
2019-05-05T19:41:23.860Z,44.10
2019-05-05T19:43:56.121Z,44.37
2019-05-05T19:46:34.752Z,44.44
2019-05-05T19:49:17.865Z,44.60
2019-05-05T19:51:50.703Z,44.38
2019-05-05T19:54:25.823Z,44.39
2019-05-05T19:56:57.890Z,44.59
2019-05-05T19:59:29.757Z,44.48
2019-05-05T20:02:03.631Z,44.54
2019-05-05T20:04:35.516Z,44.87
2019-05-05T20:07:07.623Z,44.92
2019-05-05T20:09:43.402Z,44.82
2019-05-05T20:12:15.458Z,44.94
2019-05-05T20:14:47.400Z,44.79
2019-05-05T20:17:25.419Z,44.75
2019-05-05T20:19:57.330Z,44.73
2019-05-05T20:22:29.440Z,44.81
2019-05-05T20:25:01.407Z,44.93
2019-05-05T20:27:34.337Z,44.99
2019-05-05T20:30:08.627Z,45.02
2019-05-05T20:32:56.059Z,44.73
2019-05-05T20:35:37.530Z,44.50
2019-05-05T20:38:14.162Z,44.87
2019-05-05T20:40:48.743Z,44.61
2019-05-05T20:43:20.656Z,44.83
2019-05-05T20:45:53.809Z,45.21
2019-05-05T20:48:26.046Z,45.15
2019-05-05T20:50:58.423Z,45.42
2019-05-05T20:53:30.429Z,45.58
2019-05-05T20:56:04.330Z,46.03
2019-05-05T20:58:36.407Z,46.10
2019-05-05T21:01:08.390Z,46.57
2019-05-05T21:03:40.315Z,46.42
2019-05-05T21:06:13.821Z,46.98
2019-05-05T21:08:45.832Z,47.02
2019-05-05T21:11:17.699Z,47.26
2019-05-05T21:13:49.775Z,47.53
2019-05-05T21:16:23.622Z,47.30
2019-05-05T21:18:55.534Z,46.93
2019-05-05T21:21:29.384Z,47.31
2019-05-05T21:24:04.075Z,47.14
2019-05-05T21:26:49.268Z,46.64
2019-05-05T21:29:23.637Z,46.59
2019-05-05T21:31:55.989Z,46.63
2019-05-05T21:34:28.265Z,46.80
2019-05-05T21:37:00.538Z,47.45
2019-05-05T21:39:34.950Z,47.50
2019-05-05T21:42:07.343Z,47.23
2019-05-05T21:44:39.373Z,46.99
2019-05-05T21:47:11.266Z,47.09
2019-05-05T21:49:43.307Z,47.37
2019-05-05T21:52:25.117Z,47.79
2019-05-05T21:55:16.329Z,48.18
2019-05-05T21:57:58.851Z,48.00
2019-05-05T22:00:48.476Z,47.89
2019-05-05T22:03:27.939Z,47.78
2019-05-05T22:06:00.513Z,48.13
2019-05-05T22:08:33.650Z,48.28
2019-05-05T22:11:09.273Z,48.59
2019-05-05T22:13:41.051Z,48.59
2019-05-05T22:16:13.632Z,48.46
2019-05-05T22:18:46.704Z,48.56
2019-05-05T22:21:31.321Z,48.73
2019-05-05T22:24:35.738Z,48.91
2019-05-05T22:27:07.567Z,49.05
2019-05-05T22:29:39.375Z,48.73
2019-05-05T22:32:11.299Z,48.38
2019-05-05T22:34:44.387Z,48.65
2019-05-05T22:37:17.904Z,48.84
2019-05-05T22:39:49.824Z,48.97
2019-05-05T22:42:21.941Z,49.25
2019-05-05T22:44:54.353Z,49.34
2019-05-05T22:47:26.689Z,49.47
2019-05-05T22:49:58.804Z,49.52
2019-05-05T22:52:31.019Z,49.59
2019-05-05T22:55:04.579Z,49.66
2019-05-05T22:57:36.466Z,49.75
2019-05-05T23:00:25.733Z,50.27
2019-05-05T23:02:54.921Z,50.08
2019-05-05T23:05:39.513Z,50.39
2019-05-05T23:08:13.556Z,50.84
2019-05-05T23:10:45.613Z,50.97
2019-05-05T23:13:17.730Z,50.86
2019-05-05T23:15:57.098Z,51.05
2019-05-05T23:18:29.289Z,51.33
2019-05-05T23:21:34.167Z,52.02
2019-05-05T23:24:27.764Z,52.18
2019-05-05T23:26:59.676Z,52.06
2019-05-05T23:29:31.509Z,52.19
2019-05-05T23:32:03.350Z,52.53
2019-05-05T23:34:35.274Z,52.67
2019-05-05T23:37:08.182Z,52.85
2019-05-05T23:39:39.998Z,52.83
2019-05-05T23:42:11.767Z,53.04
2019-05-05T23:44:43.884Z,53.18
2019-05-05T23:47:15.713Z,53.40
2019-05-05T23:49:47.812Z,53.27
2019-05-05T23:52:19.579Z,53.38
2019-05-05T23:54:51.941Z,53.46
2019-05-05T23:57:24.571Z,53.70
2019-05-05T23:59:57.811Z,53.95
